sensor_id;sensor_type;location;lat;lon;timestamp;temperature;humidity
1680;DHT22;838;51.794;12.258;2023-04-24T00:00:11;14.60;26.40
1680;DHT22;838;51.794;12.258;2023-04-24T00:02:43;14.70;26.30
1680;DHT22;838;51.794;12.258;2023-04-24T00:05:14;14.70;25.50
1680;DHT22;838;51.794;12.258;2023-04-24T00:07:41;14.80;25.00
1680;DHT22;838;51.794;12.258;2023-04-24T00:10:07;14.80;24.60
1680;DHT22;838;51.794;12.258;2023-04-24T00:12:33;14.80;24.60
1680;DHT22;838;51.794;12.258;2023-04-24T00:14:59;14.90;24.10
1680;DHT22;838;51.794;12.258;2023-04-24T00:17:26;14.80;23.50
1680;DHT22;838;51.794;12.258;2023-04-24T00:19:51;14.90;23.60
1680;DHT22;838;51.794;12.258;2023-04-24T00:22:25;15.00;22.90
1680;DHT22;838;51.794;12.258;2023-04-24T00:24:51;15.10;22.40
1680;DHT22;838;51.794;12.258;2023-04-24T00:27:17;15.10;21.80
1680;DHT22;838;51.794;12.258;2023-04-24T00:29:42;15.20;21.60
1680;DHT22;838;51.794;12.258;2023-04-24T00:32:08;15.20;20.30
1680;DHT22;838;51.794;12.258;2023-04-24T00:34:34;15.10;20.60
1680;DHT22;838;51.794;12.258;2023-04-24T00:37:00;15.00;21.20
1680;DHT22;838;51.794;12.258;2023-04-24T00:39:26;15.10;20.90
1680;DHT22;838;51.794;12.258;2023-04-24T00:41:52;15.00;21.20
1680;DHT22;838;51.794;12.258;2023-04-24T00:44:19;15.00;21.30
1680;DHT22;838;51.794;12.258;2023-04-24T00:46:46;14.80;21.50
1680;DHT22;838;51.794;12.258;2023-04-24T00:49:13;14.80;21.60
1680;DHT22;838;51.794;12.258;2023-04-24T00:51:39;14.80;22.00
1680;DHT22;838;51.794;12.258;2023-04-24T00:54:06;14.80;22.00
1680;DHT22;838;51.794;12.258;2023-04-24T00:56:32;14.70;22.20
1680;DHT22;838;51.794;12.258;2023-04-24T00:58:58;14.70;22.10
1680;DHT22;838;51.794;12.258;2023-04-24T01:01:24;14.60;22.80
1680;DHT22;838;51.794;12.258;2023-04-24T01:03:51;14.60;23.30
1680;DHT22;838;51.794;12.258;2023-04-24T01:06:18;14.50;24.20
1680;DHT22;838;51.794;12.258;2023-04-24T01:08:46;14.50;24.00
1680;DHT22;838;51.794;12.258;2023-04-24T01:11:13;14.50;23.90
1680;DHT22;838;51.794;12.258;2023-04-24T01:13:39;14.50;24.30
1680;DHT22;838;51.794;12.258;2023-04-24T01:16:06;14.50;24.40
1680;DHT22;838;51.794;12.258;2023-04-24T01:18:31;14.50;24.00
1680;DHT22;838;51.794;12.258;2023-04-24T01:20:59;14.30;24.90
1680;DHT22;838;51.794;12.258;2023-04-24T01:23:26;14.20;26.50
1680;DHT22;838;51.794;12.258;2023-04-24T01:25:52;14.10;26.30
1680;DHT22;838;51.794;12.258;2023-04-24T01:28:18;14.00;27.20
1680;DHT22;838;51.794;12.258;2023-04-24T01:30:44;13.90;28.20
1680;DHT22;838;51.794;12.258;2023-04-24T01:33:10;13.90;28.80
1680;DHT22;838;51.794;12.258;2023-04-24T01:35:37;13.80;29.70
1680;DHT22;838;51.794;12.258;2023-04-24T01:38:03;13.70;30.20
1680;DHT22;838;51.794;12.258;2023-04-24T01:40:30;13.70;31.10
1680;DHT22;838;51.794;12.258;2023-04-24T01:42:56;13.70;31.10
1680;DHT22;838;51.794;12.258;2023-04-24T01:45:22;13.70;30.30
1680;DHT22;838;51.794;12.258;2023-04-24T01:47:49;13.80;30.20
1680;DHT22;838;51.794;12.258;2023-04-24T01:50:16;13.70;30.80
1680;DHT22;838;51.794;12.258;2023-04-24T01:52:42;13.60;31.80
1680;DHT22;838;51.794;12.258;2023-04-24T01:55:08;13.50;33.40
1680;DHT22;838;51.794;12.258;2023-04-24T01:57:34;13.40;34.40
1680;DHT22;838;51.794;12.258;2023-04-24T02:00:00;13.30;35.70
1680;DHT22;838;51.794;12.258;2023-04-24T02:02:26;13.30;36.00
1680;DHT22;838;51.794;12.258;2023-04-24T02:04:55;13.20;37.30
1680;DHT22;838;51.794;12.258;2023-04-24T02:07:21;13.20;38.00
1680;DHT22;838;51.794;12.258;2023-04-24T02:09:47;13.20;38.30
1680;DHT22;838;51.794;12.258;2023-04-24T02:12:14;13.20;38.80
1680;DHT22;838;51.794;12.258;2023-04-24T02:14:40;13.10;39.20
1680;DHT22;838;51.794;12.258;2023-04-24T02:17:06;13.00;40.50
1680;DHT22;838;51.794;12.258;2023-04-24T02:19:32;13.00;40.50
1680;DHT22;838;51.794;12.258;2023-04-24T02:21:57;13.00;40.90
1680;DHT22;838;51.794;12.258;2023-04-24T02:24:23;13.00;40.80
1680;DHT22;838;51.794;12.258;2023-04-24T02:26:49;13.00;40.10
1680;DHT22;838;51.794;12.258;2023-04-24T02:29:14;13.10;38.80
1680;DHT22;838;51.794;12.258;2023-04-24T02:31:40;13.10;37.90
1680;DHT22;838;51.794;12.258;2023-04-24T02:34:06;13.10;37.60
1680;DHT22;838;51.794;12.258;2023-04-24T02:36:32;13.10;38.40
1680;DHT22;838;51.794;12.258;2023-04-24T02:38:58;12.90;39.30
1680;DHT22;838;51.794;12.258;2023-04-24T02:41:23;12.90;39.30
1680;DHT22;838;51.794;12.258;2023-04-24T02:43:49;12.80;40.30
1680;DHT22;838;51.794;12.258;2023-04-24T02:46:15;12.70;40.60
1680;DHT22;838;51.794;12.258;2023-04-24T02:48:41;12.70;41.40
1680;DHT22;838;51.794;12.258;2023-04-24T02:51:07;12.60;42.30
1680;DHT22;838;51.794;12.258;2023-04-24T02:53:32;12.60;42.70
1680;DHT22;838;51.794;12.258;2023-04-24T02:55:58;12.50;43.40
1680;DHT22;838;51.794;12.258;2023-04-24T02:58:24;12.50;43.90
1680;DHT22;838;51.794;12.258;2023-04-24T03:00:54;12.40;44.10
1680;DHT22;838;51.794;12.258;2023-04-24T03:03:21;12.40;45.40
1680;DHT22;838;51.794;12.258;2023-04-24T03:05:47;12.30;46.00
1680;DHT22;838;51.794;12.258;2023-04-24T03:08:13;12.30;46.80
1680;DHT22;838;51.794;12.258;2023-04-24T03:10:39;12.20;47.40
1680;DHT22;838;51.794;12.258;2023-04-24T03:13:05;12.30;47.80
1680;DHT22;838;51.794;12.258;2023-04-24T03:15:31;12.30;47.60
1680;DHT22;838;51.794;12.258;2023-04-24T03:17:57;12.20;47.40
1680;DHT22;838;51.794;12.258;2023-04-24T03:20:23;12.20;47.80
1680;DHT22;838;51.794;12.258;2023-04-24T03:22:49;12.20;47.40
1680;DHT22;838;51.794;12.258;2023-04-24T03:25:14;12.20;47.80
1680;DHT22;838;51.794;12.258;2023-04-24T03:27:40;12.20;47.30
1680;DHT22;838;51.794;12.258;2023-04-24T03:30:07;12.20;47.60
1680;DHT22;838;51.794;12.258;2023-04-24T03:32:33;12.20;47.40
1680;DHT22;838;51.794;12.258;2023-04-24T03:34:59;12.20;47.50
1680;DHT22;838;51.794;12.258;2023-04-24T03:37:25;12.20;46.30
1680;DHT22;838;51.794;12.258;2023-04-24T03:39:52;12.20;46.40
1680;DHT22;838;51.794;12.258;2023-04-24T03:42:18;12.20;46.80
1680;DHT22;838;51.794;12.258;2023-04-24T03:44:43;12.20;46.80
1680;DHT22;838;51.794;12.258;2023-04-24T03:47:09;12.20;45.90
1680;DHT22;838;51.794;12.258;2023-04-24T03:49:35;12.20;45.70
1680;DHT22;838;51.794;12.258;2023-04-24T03:52:01;12.20;45.60
1680;DHT22;838;51.794;12.258;2023-04-24T03:54:27;12.30;44.50
1680;DHT22;838;51.794;12.258;2023-04-24T03:56:53;12.30;43.20
1680;DHT22;838;51.794;12.258;2023-04-24T03:59:18;12.40;43.30
1680;DHT22;838;51.794;12.258;2023-04-24T04:01:44;12.60;41.30
1680;DHT22;838;51.794;12.258;2023-04-24T04:04:11;12.80;38.90
1680;DHT22;838;51.794;12.258;2023-04-24T04:06:37;12.80;37.50
1680;DHT22;838;51.794;12.258;2023-04-24T04:09:03;12.90;36.30
1680;DHT22;838;51.794;12.258;2023-04-24T04:11:29;12.80;36.10
1680;DHT22;838;51.794;12.258;2023-04-24T04:13:55;12.80;35.30
1680;DHT22;838;51.794;12.258;2023-04-24T04:16:22;12.60;36.30
1680;DHT22;838;51.794;12.258;2023-04-24T04:18:48;12.50;36.10
1680;DHT22;838;51.794;12.258;2023-04-24T04:21:14;12.30;37.80
1680;DHT22;838;51.794;12.258;2023-04-24T04:23:40;12.00;41.10
1680;DHT22;838;51.794;12.258;2023-04-24T04:26:06;11.80;43.10
1680;DHT22;838;51.794;12.258;2023-04-24T04:28:32;12.00;41.90
1680;DHT22;838;51.794;12.258;2023-04-24T04:30:58;12.30;39.90
1680;DHT22;838;51.794;12.258;2023-04-24T04:33:24;12.40;36.90
1680;DHT22;838;51.794;12.258;2023-04-24T04:35:50;12.40;36.60
1680;DHT22;838;51.794;12.258;2023-04-24T04:38:22;12.30;36.70
1680;DHT22;838;51.794;12.258;2023-04-24T04:40:48;12.20;36.80
1680;DHT22;838;51.794;12.258;2023-04-24T04:43:14;12.20;38.40
1680;DHT22;838;51.794;12.258;2023-04-24T04:45:41;12.20;39.40
1680;DHT22;838;51.794;12.258;2023-04-24T04:48:09;12.30;38.80
1680;DHT22;838;51.794;12.258;2023-04-24T04:50:38;12.40;37.80
1680;DHT22;838;51.794;12.258;2023-04-24T04:53:04;12.50;37.90
1680;DHT22;838;51.794;12.258;2023-04-24T04:55:30;12.80;35.00
1680;DHT22;838;51.794;12.258;2023-04-24T04:57:56;13.00;33.50
1680;DHT22;838;51.794;12.258;2023-04-24T05:00:22;13.20;33.10
1680;DHT22;838;51.794;12.258;2023-04-24T05:02:51;13.40;29.00
1680;DHT22;838;51.794;12.258;2023-04-24T05:05:17;13.70;29.10
1680;DHT22;838;51.794;12.258;2023-04-24T05:07:43;14.00;26.60
1680;DHT22;838;51.794;12.258;2023-04-24T05:10:09;14.20;25.60
1680;DHT22;838;51.794;12.258;2023-04-24T05:12:36;14.30;23.50
1680;DHT22;838;51.794;12.258;2023-04-24T05:15:03;14.80;24.50
1680;DHT22;838;51.794;12.258;2023-04-24T05:17:29;15.80;20.50
1680;DHT22;838;51.794;12.258;2023-04-24T05:19:55;16.70;14.10
1680;DHT22;838;51.794;12.258;2023-04-24T05:22:21;17.00;10.10
1680;DHT22;838;51.794;12.258;2023-04-24T05:24:47;17.00;8.90
1680;DHT22;838;51.794;12.258;2023-04-24T05:27:13;16.90;8.00
1680;DHT22;838;51.794;12.258;2023-04-24T05:29:39;16.80;8.20
1680;DHT22;838;51.794;12.258;2023-04-24T05:32:06;16.60;8.70
1680;DHT22;838;51.794;12.258;2023-04-24T05:34:32;16.50;8.60
1680;DHT22;838;51.794;12.258;2023-04-24T05:36:58;16.20;10.00
1680;DHT22;838;51.794;12.258;2023-04-24T05:39:23;16.10;11.30
1680;DHT22;838;51.794;12.258;2023-04-24T05:41:50;16.20;11.10
1680;DHT22;838;51.794;12.258;2023-04-24T05:44:16;16.90;10.50
1680;DHT22;838;51.794;12.258;2023-04-24T05:46:42;18.10;6.10
1680;DHT22;838;51.794;12.258;2023-04-24T05:49:08;19.10;1.90
1680;DHT22;838;51.794;12.258;2023-04-24T05:51:33;19.60;1.00
1680;DHT22;838;51.794;12.258;2023-04-24T05:53:59;19.70;1.00
1680;DHT22;838;51.794;12.258;2023-04-24T05:56:25;19.40;1.00
1680;DHT22;838;51.794;12.258;2023-04-24T05:58:50;18.90;1.00
1680;DHT22;838;51.794;12.258;2023-04-24T06:01:16;18.40;1.00
1680;DHT22;838;51.794;12.258;2023-04-24T06:03:42;18.30;1.00
1680;DHT22;838;51.794;12.258;2023-04-24T06:06:08;18.10;1.00
1680;DHT22;838;51.794;12.258;2023-04-24T06:08:37;17.80;1.50
1680;DHT22;838;51.794;12.258;2023-04-24T06:11:03;17.80;1.50
1680;DHT22;838;51.794;12.258;2023-04-24T06:13:28;17.70;1.80
1680;DHT22;838;51.794;12.258;2023-04-24T06:15:54;17.50;1.30
1680;DHT22;838;51.794;12.258;2023-04-24T06:18:20;17.00;2.90
1680;DHT22;838;51.794;12.258;2023-04-24T06:20:46;16.60;4.70
1680;DHT22;838;51.794;12.258;2023-04-24T06:23:12;17.00;6.70
1680;DHT22;838;51.794;12.258;2023-04-24T06:25:38;18.60;2.00
1680;DHT22;838;51.794;12.258;2023-04-24T06:28:04;20.30;1.00
1680;DHT22;838;51.794;12.258;2023-04-24T06:30:31;21.80;1.00
1680;DHT22;838;51.794;12.258;2023-04-24T06:32:57;21.20;1.00
1680;DHT22;838;51.794;12.258;2023-04-24T06:35:23;19.90;1.00
1680;DHT22;838;51.794;12.258;2023-04-24T06:40:15;18.90;1.00
1680;DHT22;838;51.794;12.258;2023-04-24T06:42:43;18.80;1.00
1680;DHT22;838;51.794;12.258;2023-04-24T06:45:14;19.70;1.00
1680;DHT22;838;51.794;12.258;2023-04-24T06:47:40;21.10;1.00
1680;DHT22;838;51.794;12.258;2023-04-24T06:50:06;22.00;1.00
1680;DHT22;838;51.794;12.258;2023-04-24T06:52:32;22.50;1.00
1680;DHT22;838;51.794;12.258;2023-04-24T06:55:03;22.80;1.00
1680;DHT22;838;51.794;12.258;2023-04-24T06:57:29;23.80;1.00
1680;DHT22;838;51.794;12.258;2023-04-24T06:59:55;24.10;1.00
1680;DHT22;838;51.794;12.258;2023-04-24T07:02:21;23.20;1.00
1680;DHT22;838;51.794;12.258;2023-04-24T07:04:46;21.70;1.00
1680;DHT22;838;51.794;12.258;2023-04-24T07:07:13;20.00;1.00
1680;DHT22;838;51.794;12.258;2023-04-24T07:09:40;19.00;1.00
1680;DHT22;838;51.794;12.258;2023-04-24T07:12:11;18.40;1.00
1680;DHT22;838;51.794;12.258;2023-04-24T07:14:37;18.20;1.00
1680;DHT22;838;51.794;12.258;2023-04-24T07:17:06;17.90;1.00
1680;DHT22;838;51.794;12.258;2023-04-24T07:19:33;18.00;1.00
1680;DHT22;838;51.794;12.258;2023-04-24T07:22:01;18.00;1.00
1680;DHT22;838;51.794;12.258;2023-04-24T07:24:26;18.10;1.00
1680;DHT22;838;51.794;12.258;2023-04-24T07:26:53;17.90;1.00
1680;DHT22;838;51.794;12.258;2023-04-24T07:29:19;17.50;1.00
1680;DHT22;838;51.794;12.258;2023-04-24T07:31:46;17.40;1.70
1680;DHT22;838;51.794;12.258;2023-04-24T07:34:12;17.40;2.60
1680;DHT22;838;51.794;12.258;2023-04-24T07:36:37;17.40;2.40
1680;DHT22;838;51.794;12.258;2023-04-24T07:39:04;17.30;2.60
1680;DHT22;838;51.794;12.258;2023-04-24T07:41:34;17.40;3.00
1680;DHT22;838;51.794;12.258;2023-04-24T07:44:00;17.00;3.90
1680;DHT22;838;51.794;12.258;2023-04-24T07:46:25;16.80;4.80
1680;DHT22;838;51.794;12.258;2023-04-24T07:48:55;16.90;5.20
1680;DHT22;838;51.794;12.258;2023-04-24T07:51:21;17.00;5.40
1680;DHT22;838;51.794;12.258;2023-04-24T07:53:46;17.30;4.90
1680;DHT22;838;51.794;12.258;2023-04-24T07:56:12;17.40;4.60
1680;DHT22;838;51.794;12.258;2023-04-24T08:01:04;18.30;1.00
1680;DHT22;838;51.794;12.258;2023-04-24T08:03:30;18.70;1.00
1680;DHT22;838;51.794;12.258;2023-04-24T08:05:56;19.00;1.00
1680;DHT22;838;51.794;12.258;2023-04-24T08:08:22;19.20;1.00
1680;DHT22;838;51.794;12.258;2023-04-24T08:10:49;18.60;1.00
1680;DHT22;838;51.794;12.258;2023-04-24T08:13:15;18.90;1.00
1680;DHT22;838;51.794;12.258;2023-04-24T08:15:40;19.10;1.00
1680;DHT22;838;51.794;12.258;2023-04-24T08:18:07;19.50;1.00
1680;DHT22;838;51.794;12.258;2023-04-24T08:20:32;20.00;1.00
1680;DHT22;838;51.794;12.258;2023-04-24T08:22:58;20.30;1.00
1680;DHT22;838;51.794;12.258;2023-04-24T08:25:24;20.50;1.00
1680;DHT22;838;51.794;12.258;2023-04-24T08:27:50;20.20;1.00
1680;DHT22;838;51.794;12.258;2023-04-24T08:30:16;19.50;1.00
1680;DHT22;838;51.794;12.258;2023-04-24T08:32:42;19.30;1.00
1680;DHT22;838;51.794;12.258;2023-04-24T08:35:08;19.40;1.00
1680;DHT22;838;51.794;12.258;2023-04-24T08:37:35;19.60;1.00
1680;DHT22;838;51.794;12.258;2023-04-24T08:40:06;20.00;1.00
1680;DHT22;838;51.794;12.258;2023-04-24T08:42:34;20.00;1.00
1680;DHT22;838;51.794;12.258;2023-04-24T08:45:02;19.90;1.00
1680;DHT22;838;51.794;12.258;2023-04-24T08:47:29;19.50;1.00
1680;DHT22;838;51.794;12.258;2023-04-24T08:49:56;19.10;1.00
1680;DHT22;838;51.794;12.258;2023-04-24T08:52:22;18.80;1.00
1680;DHT22;838;51.794;12.258;2023-04-24T08:54:48;18.40;1.00
1680;DHT22;838;51.794;12.258;2023-04-24T08:57:15;18.30;1.00
1680;DHT22;838;51.794;12.258;2023-04-24T08:59:41;18.30;1.00
1680;DHT22;838;51.794;12.258;2023-04-24T09:02:10;18.00;1.00
1680;DHT22;838;51.794;12.258;2023-04-24T09:04:37;17.70;1.00
1680;DHT22;838;51.794;12.258;2023-04-24T09:07:04;18.10;1.00
1680;DHT22;838;51.794;12.258;2023-04-24T09:09:32;19.80;1.00
1680;DHT22;838;51.794;12.258;2023-04-24T09:11:58;21.30;1.00
1680;DHT22;838;51.794;12.258;2023-04-24T09:14:24;22.40;1.00
1680;DHT22;838;51.794;12.258;2023-04-24T09:19:17;23.60;1.00
1680;DHT22;838;51.794;12.258;2023-04-24T09:21:45;24.20;1.00
1680;DHT22;838;51.794;12.258;2023-04-24T09:24:19;24.70;1.00
1680;DHT22;838;51.794;12.258;2023-04-24T09:26:48;25.40;1.00
1680;DHT22;838;51.794;12.258;2023-04-24T09:29:17;26.00;1.00
1680;DHT22;838;51.794;12.258;2023-04-24T09:31:45;26.50;1.00
1680;DHT22;838;51.794;12.258;2023-04-24T09:34:11;25.10;1.00
1680;DHT22;838;51.794;12.258;2023-04-24T09:36:42;24.70;1.00
1680;DHT22;838;51.794;12.258;2023-04-24T09:39:14;25.00;1.00
1680;DHT22;838;51.794;12.258;2023-04-24T09:44:16;24.00;1.00
1680;DHT22;838;51.794;12.258;2023-04-24T09:46:43;24.00;1.00
1680;DHT22;838;51.794;12.258;2023-04-24T09:49:13;23.70;1.00
1680;DHT22;838;51.794;12.258;2023-04-24T09:51:42;22.50;1.00
1680;DHT22;838;51.794;12.258;2023-04-24T09:54:14;21.90;1.00
1680;DHT22;838;51.794;12.258;2023-04-24T09:56:45;20.90;1.00
1680;DHT22;838;51.794;12.258;2023-04-24T09:59:12;20.40;1.00
1680;DHT22;838;51.794;12.258;2023-04-24T10:01:38;20.10;1.00
1680;DHT22;838;51.794;12.258;2023-04-24T10:04:15;19.90;1.00
1680;DHT22;838;51.794;12.258;2023-04-24T10:06:42;19.90;1.00
1680;DHT22;838;51.794;12.258;2023-04-24T10:09:08;20.00;1.00
1680;DHT22;838;51.794;12.258;2023-04-24T10:11:42;20.00;1.00
1680;DHT22;838;51.794;12.258;2023-04-24T10:14:13;20.00;1.00
1680;DHT22;838;51.794;12.258;2023-04-24T10:16:40;20.00;1.00
1680;DHT22;838;51.794;12.258;2023-04-24T10:19:07;19.90;1.00
1680;DHT22;838;51.794;12.258;2023-04-24T10:21:33;20.10;1.00
1680;DHT22;838;51.794;12.258;2023-04-24T10:23:59;20.20;1.00
1680;DHT22;838;51.794;12.258;2023-04-24T10:26:29;20.30;1.00
1680;DHT22;838;51.794;12.258;2023-04-24T10:28:57;20.20;1.00
1680;DHT22;838;51.794;12.258;2023-04-24T10:31:24;20.30;1.00
1680;DHT22;838;51.794;12.258;2023-04-24T10:33:52;20.40;1.00
1680;DHT22;838;51.794;12.258;2023-04-24T10:36:22;20.10;1.00
1680;DHT22;838;51.794;12.258;2023-04-24T10:38:50;19.50;1.00
1680;DHT22;838;51.794;12.258;2023-04-24T10:41:18;19.20;1.00
1680;DHT22;838;51.794;12.258;2023-04-24T10:43:46;19.10;1.00
1680;DHT22;838;51.794;12.258;2023-04-24T10:46:19;19.30;1.00
1680;DHT22;838;51.794;12.258;2023-04-24T10:48:54;19.40;1.00
1680;DHT22;838;51.794;12.258;2023-04-24T10:51:22;19.60;1.00
1680;DHT22;838;51.794;12.258;2023-04-24T10:53:50;19.90;1.00
1680;DHT22;838;51.794;12.258;2023-04-24T10:56:17;20.10;1.00
1680;DHT22;838;51.794;12.258;2023-04-24T10:58:45;19.90;1.00
1680;DHT22;838;51.794;12.258;2023-04-24T11:01:32;19.60;1.00
1680;DHT22;838;51.794;12.258;2023-04-24T11:04:02;19.40;1.00
1680;DHT22;838;51.794;12.258;2023-04-24T11:06:34;19.20;1.00
1680;DHT22;838;51.794;12.258;2023-04-24T11:09:10;19.00;1.00
1680;DHT22;838;51.794;12.258;2023-04-24T11:11:42;19.30;1.00
1680;DHT22;838;51.794;12.258;2023-04-24T11:14:10;19.60;1.00
1680;DHT22;838;51.794;12.258;2023-04-24T11:16:43;19.60;1.00
1680;DHT22;838;51.794;12.258;2023-04-24T11:21:47;19.40;1.00
1680;DHT22;838;51.794;12.258;2023-04-24T11:24:29;19.10;1.00
1680;DHT22;838;51.794;12.258;2023-04-24T11:27:18;19.10;1.00
1680;DHT22;838;51.794;12.258;2023-04-24T11:32:33;19.20;1.00
1680;DHT22;838;51.794;12.258;2023-04-24T11:35:08;19.10;1.00
1680;DHT22;838;51.794;12.258;2023-04-24T11:37:35;19.10;1.00
1680;DHT22;838;51.794;12.258;2023-04-24T11:40:03;19.30;1.00
1680;DHT22;838;51.794;12.258;2023-04-24T11:45:10;19.50;1.00
1680;DHT22;838;51.794;12.258;2023-04-24T11:47:40;19.30;1.00
1680;DHT22;838;51.794;12.258;2023-04-24T11:50:10;19.30;1.00
1680;DHT22;838;51.794;12.258;2023-04-24T11:52:48;19.50;1.00
1680;DHT22;838;51.794;12.258;2023-04-24T11:57:42;19.90;1.00
1680;DHT22;838;51.794;12.258;2023-04-24T12:00:15;19.90;1.00
1680;DHT22;838;51.794;12.258;2023-04-24T12:02:44;19.70;1.00
1680;DHT22;838;51.794;12.258;2023-04-24T12:05:30;19.40;1.00
1680;DHT22;838;51.794;12.258;2023-04-24T12:07:57;19.60;1.00
1680;DHT22;838;51.794;12.258;2023-04-24T12:10:28;19.50;1.00
1680;DHT22;838;51.794;12.258;2023-04-24T12:12:56;19.60;1.00
1680;DHT22;838;51.794;12.258;2023-04-24T12:15:23;19.80;1.00
1680;DHT22;838;51.794;12.258;2023-04-24T12:17:52;19.80;1.00
1680;DHT22;838;51.794;12.258;2023-04-24T12:20:32;19.70;1.00
1680;DHT22;838;51.794;12.258;2023-04-24T12:23:00;19.40;1.00
1680;DHT22;838;51.794;12.258;2023-04-24T12:25:28;19.50;1.00
1680;DHT22;838;51.794;12.258;2023-04-24T12:30:48;19.70;1.00
1680;DHT22;838;51.794;12.258;2023-04-24T12:33:20;19.80;1.00
1680;DHT22;838;51.794;12.258;2023-04-24T12:35:51;19.70;1.00
1680;DHT22;838;51.794;12.258;2023-04-24T12:38:23;19.30;1.00
1680;DHT22;838;51.794;12.258;2023-04-24T12:41:06;18.70;1.00
1680;DHT22;838;51.794;12.258;2023-04-24T12:43:32;18.60;1.00
1680;DHT22;838;51.794;12.258;2023-04-24T12:45:58;18.60;1.00
1680;DHT22;838;51.794;12.258;2023-04-24T12:48:28;18.60;1.00
1680;DHT22;838;51.794;12.258;2023-04-24T12:50:54;18.70;1.00
1680;DHT22;838;51.794;12.258;2023-04-24T12:53:24;18.70;1.00
1680;DHT22;838;51.794;12.258;2023-04-24T12:55:52;18.80;1.00
1680;DHT22;838;51.794;12.258;2023-04-24T12:58:21;18.60;1.00
1680;DHT22;838;51.794;12.258;2023-04-24T13:03:14;18.70;1.00
1680;DHT22;838;51.794;12.258;2023-04-24T13:05:43;18.70;1.00
1680;DHT22;838;51.794;12.258;2023-04-24T13:08:09;18.80;1.00
1680;DHT22;838;51.794;12.258;2023-04-24T13:13:01;18.70;1.00
1680;DHT22;838;51.794;12.258;2023-04-24T13:17:54;18.60;1.00
1680;DHT22;838;51.794;12.258;2023-04-24T13:22:49;19.20;1.00
1680;DHT22;838;51.794;12.258;2023-04-24T13:25:18;19.40;1.00
1680;DHT22;838;51.794;12.258;2023-04-24T13:27:45;19.30;1.00
1680;DHT22;838;51.794;12.258;2023-04-24T13:35:09;19.10;1.00
1680;DHT22;838;51.794;12.258;2023-04-24T13:37:35;19.40;1.00
1680;DHT22;838;51.794;12.258;2023-04-24T13:42:34;19.20;1.00
1680;DHT22;838;51.794;12.258;2023-04-24T13:44:59;19.20;1.00
1680;DHT22;838;51.794;12.258;2023-04-24T13:47:25;19.10;1.00
1680;DHT22;838;51.794;12.258;2023-04-24T13:49:51;19.20;1.00
1680;DHT22;838;51.794;12.258;2023-04-24T13:52:19;18.90;1.00
1680;DHT22;838;51.794;12.258;2023-04-24T13:54:45;18.90;1.00
1680;DHT22;838;51.794;12.258;2023-04-24T13:57:18;18.70;1.00
1680;DHT22;838;51.794;12.258;2023-04-24T13:59:44;18.30;1.00
1680;DHT22;838;51.794;12.258;2023-04-24T14:04:37;18.40;1.00
1680;DHT22;838;51.794;12.258;2023-04-24T14:07:02;18.60;1.00
1680;DHT22;838;51.794;12.258;2023-04-24T14:09:28;18.60;1.00
1680;DHT22;838;51.794;12.258;2023-04-24T14:11:54;18.60;1.00
1680;DHT22;838;51.794;12.258;2023-04-24T14:14:20;18.40;1.00
1680;DHT22;838;51.794;12.258;2023-04-24T14:16:47;18.20;1.00
1680;DHT22;838;51.794;12.258;2023-04-24T14:19:12;17.90;1.00
1680;DHT22;838;51.794;12.258;2023-04-24T14:21:38;17.70;1.00
1680;DHT22;838;51.794;12.258;2023-04-24T14:24:04;17.40;1.00
1680;DHT22;838;51.794;12.258;2023-04-24T14:28:56;17.50;1.00
1680;DHT22;838;51.794;12.258;2023-04-24T14:31:24;17.80;1.00
1680;DHT22;838;51.794;12.258;2023-04-24T14:33:49;18.10;1.00
1680;DHT22;838;51.794;12.258;2023-04-24T14:36:15;18.30;1.00
1680;DHT22;838;51.794;12.258;2023-04-24T14:38:41;18.20;1.00
1680;DHT22;838;51.794;12.258;2023-04-24T14:41:07;18.00;1.00
1680;DHT22;838;51.794;12.258;2023-04-24T14:43:35;17.80;1.00
1680;DHT22;838;51.794;12.258;2023-04-24T14:46:02;17.80;1.00
1680;DHT22;838;51.794;12.258;2023-04-24T14:48:28;17.70;1.00
1680;DHT22;838;51.794;12.258;2023-04-24T14:50:53;17.50;1.00
1680;DHT22;838;51.794;12.258;2023-04-24T14:53:19;17.30;1.00
1680;DHT22;838;51.794;12.258;2023-04-24T14:55:45;17.10;1.00
1680;DHT22;838;51.794;12.258;2023-04-24T14:58:11;17.30;1.00
1680;DHT22;838;51.794;12.258;2023-04-24T15:03:03;17.30;1.00
1680;DHT22;838;51.794;12.258;2023-04-24T15:05:29;16.90;1.00
1680;DHT22;838;51.794;12.258;2023-04-24T15:07:55;16.80;1.00
1680;DHT22;838;51.794;12.258;2023-04-24T15:12:49;16.70;1.00
1680;DHT22;838;51.794;12.258;2023-04-24T15:15:15;16.50;1.00
1680;DHT22;838;51.794;12.258;2023-04-24T15:17:41;16.30;1.00
1680;DHT22;838;51.794;12.258;2023-04-24T15:20:07;16.30;1.00
1680;DHT22;838;51.794;12.258;2023-04-24T15:22:33;16.20;1.00
1680;DHT22;838;51.794;12.258;2023-04-24T15:24:59;16.10;1.00
1680;DHT22;838;51.794;12.258;2023-04-24T15:27:26;15.90;1.00
1680;DHT22;838;51.794;12.258;2023-04-24T15:29:52;15.60;1.00
1680;DHT22;838;51.794;12.258;2023-04-24T15:32:19;15.60;1.00
1680;DHT22;838;51.794;12.258;2023-04-24T15:34:44;15.60;1.00
1680;DHT22;838;51.794;12.258;2023-04-24T15:37:10;15.40;1.00
1680;DHT22;838;51.794;12.258;2023-04-24T15:39:36;15.40;1.00
1680;DHT22;838;51.794;12.258;2023-04-24T15:42:02;15.30;1.00
1680;DHT22;838;51.794;12.258;2023-04-24T15:44:28;15.40;1.00
1680;DHT22;838;51.794;12.258;2023-04-24T15:46:54;15.40;1.00
1680;DHT22;838;51.794;12.258;2023-04-24T15:49:20;15.30;1.00
1680;DHT22;838;51.794;12.258;2023-04-24T15:51:46;15.10;1.00
1680;DHT22;838;51.794;12.258;2023-04-24T15:54:12;15.10;1.00
1680;DHT22;838;51.794;12.258;2023-04-24T15:56:37;15.20;1.00
1680;DHT22;838;51.794;12.258;2023-04-24T15:59:03;15.10;1.00
1680;DHT22;838;51.794;12.258;2023-04-24T16:01:30;14.90;1.00
1680;DHT22;838;51.794;12.258;2023-04-24T16:03:56;15.00;1.00
1680;DHT22;838;51.794;12.258;2023-04-24T16:06:22;15.00;1.00
1680;DHT22;838;51.794;12.258;2023-04-24T16:08:48;15.20;1.00
1680;DHT22;838;51.794;12.258;2023-04-24T16:11:13;15.00;1.00
1680;DHT22;838;51.794;12.258;2023-04-24T16:13:39;14.80;1.00
1680;DHT22;838;51.794;12.258;2023-04-24T16:16:05;14.80;1.00
1680;DHT22;838;51.794;12.258;2023-04-24T16:18:34;14.70;1.00
1680;DHT22;838;51.794;12.258;2023-04-24T16:20:59;14.70;1.00
1680;DHT22;838;51.794;12.258;2023-04-24T16:23:25;14.70;1.00
1680;DHT22;838;51.794;12.258;2023-04-24T16:25:51;14.70;1.00
1680;DHT22;838;51.794;12.258;2023-04-24T16:28:17;14.70;1.00
1680;DHT22;838;51.794;12.258;2023-04-24T16:30:43;14.40;1.00
1680;DHT22;838;51.794;12.258;2023-04-24T16:33:08;14.30;1.00
1680;DHT22;838;51.794;12.258;2023-04-24T16:35:35;14.20;1.00
1680;DHT22;838;51.794;12.258;2023-04-24T16:38:01;13.90;1.00
1680;DHT22;838;51.794;12.258;2023-04-24T16:40:29;13.70;1.00
1680;DHT22;838;51.794;12.258;2023-04-24T16:42:55;13.60;1.00
1680;DHT22;838;51.794;12.258;2023-04-24T16:45:21;13.50;1.00
1680;DHT22;838;51.794;12.258;2023-04-24T16:47:46;13.40;1.00
1680;DHT22;838;51.794;12.258;2023-04-24T16:50:12;13.40;1.00
1680;DHT22;838;51.794;12.258;2023-04-24T16:52:38;13.40;1.00
1680;DHT22;838;51.794;12.258;2023-04-24T16:55:04;13.40;1.00
1680;DHT22;838;51.794;12.258;2023-04-24T16:57:30;13.20;1.00
1680;DHT22;838;51.794;12.258;2023-04-24T16:59:56;13.20;1.00